sensor_id;sensor_type;location;lat;lon;timestamp;P1;durP1;ratioP1;P2;durP2;ratioP2
6372;SDS011;3219;51.362;7.074;2023-08-07T00:01:24;2.00;;;1.65;;
6372;SDS011;3219;51.362;7.074;2023-08-07T00:03:53;3.85;;;2.35;;
6372;SDS011;3219;51.362;7.074;2023-08-07T00:06:20;3.65;;;2.75;;
6372;SDS011;3219;51.362;7.074;2023-08-07T00:08:47;2.20;;;2.00;;
6372;SDS011;3219;51.362;7.074;2023-08-07T00:11:14;2.65;;;2.28;;
6372;SDS011;3219;51.362;7.074;2023-08-07T00:13:44;3.70;;;2.40;;
6372;SDS011;3219;51.362;7.074;2023-08-07T00:18:39;1.83;;;1.42;;
6372;SDS011;3219;51.362;7.074;2023-08-07T00:21:06;2.80;;;1.65;;
6372;SDS011;3219;51.362;7.074;2023-08-07T00:23:33;2.03;;;1.83;;
6372;SDS011;3219;51.362;7.074;2023-08-07T00:26:01;3.60;;;2.20;;
6372;SDS011;3219;51.362;7.074;2023-08-07T00:28:29;3.05;;;1.30;;
6372;SDS011;3219;51.362;7.074;2023-08-07T00:30:59;3.28;;;1.38;;
6372;SDS011;3219;51.362;7.074;2023-08-07T00:33:27;3.42;;;1.15;;
6372;SDS011;3219;51.362;7.074;2023-08-07T00:35:54;2.03;;;1.35;;
6372;SDS011;3219;51.362;7.074;2023-08-07T00:38:22;2.20;;;1.40;;
6372;SDS011;3219;51.362;7.074;2023-08-07T00:40:50;2.45;;;1.75;;
6372;SDS011;3219;51.362;7.074;2023-08-07T00:43:17;3.95;;;1.52;;
6372;SDS011;3219;51.362;7.074;2023-08-07T00:45:46;4.70;;;1.13;;
6372;SDS011;3219;51.362;7.074;2023-08-07T00:48:16;3.63;;;1.25;;
6372;SDS011;3219;51.362;7.074;2023-08-07T00:50:44;3.25;;;1.40;;
6372;SDS011;3219;51.362;7.074;2023-08-07T00:53:12;4.10;;;2.00;;
6372;SDS011;3219;51.362;7.074;2023-08-07T00:55:40;3.20;;;1.05;;
6372;SDS011;3219;51.362;7.074;2023-08-07T00:58:08;6.50;;;1.65;;
6372;SDS011;3219;51.362;7.074;2023-08-07T01:00:36;4.57;;;1.27;;
6372;SDS011;3219;51.362;7.074;2023-08-07T01:03:06;4.10;;;1.38;;
6372;SDS011;3219;51.362;7.074;2023-08-07T01:05:36;2.47;;;1.58;;
6372;SDS011;3219;51.362;7.074;2023-08-07T01:08:03;3.05;;;1.58;;
6372;SDS011;3219;51.362;7.074;2023-08-07T01:10:34;2.35;;;1.75;;
6372;SDS011;3219;51.362;7.074;2023-08-07T01:13:05;3.42;;;1.30;;
6372;SDS011;3219;51.362;7.074;2023-08-07T01:15:35;4.30;;;1.77;;
6372;SDS011;3219;51.362;7.074;2023-08-07T01:18:05;2.90;;;1.42;;
6372;SDS011;3219;51.362;7.074;2023-08-07T01:20:37;4.10;;;0.52;;
6372;SDS011;3219;51.362;7.074;2023-08-07T01:23:05;3.20;;;1.15;;
6372;SDS011;3219;51.362;7.074;2023-08-07T01:25:32;2.70;;;1.35;;
6372;SDS011;3219;51.362;7.074;2023-08-07T01:28:05;2.95;;;1.67;;
6372;SDS011;3219;51.362;7.074;2023-08-07T01:30:35;4.28;;;0.90;;
6372;SDS011;3219;51.362;7.074;2023-08-07T01:33:06;4.28;;;1.40;;
6372;SDS011;3219;51.362;7.074;2023-08-07T01:35:38;3.80;;;1.63;;
6372;SDS011;3219;51.362;7.074;2023-08-07T01:38:07;5.22;;;2.63;;
6372;SDS011;3219;51.362;7.074;2023-08-07T01:40:36;3.42;;;1.50;;
6372;SDS011;3219;51.362;7.074;2023-08-07T01:43:05;4.28;;;2.42;;
6372;SDS011;3219;51.362;7.074;2023-08-07T01:45:33;3.53;;;2.67;;
6372;SDS011;3219;51.362;7.074;2023-08-07T01:48:00;3.10;;;2.13;;
6372;SDS011;3219;51.362;7.074;2023-08-07T01:50:28;3.70;;;1.80;;
6372;SDS011;3219;51.362;7.074;2023-08-07T01:52:56;4.03;;;1.75;;
6372;SDS011;3219;51.362;7.074;2023-08-07T01:55:27;4.20;;;1.77;;
6372;SDS011;3219;51.362;7.074;2023-08-07T01:57:55;3.30;;;2.28;;
6372;SDS011;3219;51.362;7.074;2023-08-07T02:00:23;3.97;;;1.98;;
6372;SDS011;3219;51.362;7.074;2023-08-07T02:02:50;2.97;;;1.83;;
6372;SDS011;3219;51.362;7.074;2023-08-07T02:05:17;5.10;;;2.35;;
6372;SDS011;3219;51.362;7.074;2023-08-07T02:07:45;4.55;;;2.40;;
6372;SDS011;3219;51.362;7.074;2023-08-07T02:10:13;5.32;;;2.40;;
6372;SDS011;3219;51.362;7.074;2023-08-07T02:12:43;3.58;;;2.58;;
6372;SDS011;3219;51.362;7.074;2023-08-07T02:15:10;3.10;;;2.78;;
6372;SDS011;3219;51.362;7.074;2023-08-07T02:17:37;3.30;;;2.28;;
6372;SDS011;3219;51.362;7.074;2023-08-07T02:20:06;3.80;;;2.13;;
6372;SDS011;3219;51.362;7.074;2023-08-07T02:22:34;2.35;;;1.98;;
6372;SDS011;3219;51.362;7.074;2023-08-07T02:25:02;3.50;;;3.10;;
6372;SDS011;3219;51.362;7.074;2023-08-07T02:27:31;4.32;;;1.77;;
6372;SDS011;3219;51.362;7.074;2023-08-07T02:29:59;2.47;;;2.05;;
6372;SDS011;3219;51.362;7.074;2023-08-07T02:32:27;2.75;;;1.85;;
6372;SDS011;3219;51.362;7.074;2023-08-07T02:34:55;2.92;;;1.80;;
6372;SDS011;3219;51.362;7.074;2023-08-07T02:37:23;2.00;;;1.50;;
6372;SDS011;3219;51.362;7.074;2023-08-07T02:39:51;2.72;;;1.42;;
6372;SDS011;3219;51.362;7.074;2023-08-07T02:42:19;2.90;;;1.45;;
6372;SDS011;3219;51.362;7.074;2023-08-07T02:44:47;4.07;;;1.73;;
6372;SDS011;3219;51.362;7.074;2023-08-07T02:47:15;1.63;;;1.23;;
6372;SDS011;3219;51.362;7.074;2023-08-07T02:52:11;2.55;;;0.93;;
6372;SDS011;3219;51.362;7.074;2023-08-07T02:54:39;3.90;;;1.27;;
6372;SDS011;3219;51.362;7.074;2023-08-07T02:57:07;2.42;;;1.05;;
6372;SDS011;3219;51.362;7.074;2023-08-07T02:59:34;7.70;;;1.48;;
6372;SDS011;3219;51.362;7.074;2023-08-07T03:02:02;2.38;;;1.60;;
6372;SDS011;3219;51.362;7.074;2023-08-07T03:04:31;2.00;;;1.65;;
6372;SDS011;3219;51.362;7.074;2023-08-07T03:09:27;1.67;;;1.58;;
6372;SDS011;3219;51.362;7.074;2023-08-07T03:11:55;2.15;;;1.13;;
6372;SDS011;3219;51.362;7.074;2023-08-07T03:14:28;2.13;;;1.30;;
6372;SDS011;3219;51.362;7.074;2023-08-07T03:16:55;3.03;;;1.58;;
6372;SDS011;3219;51.362;7.074;2023-08-07T03:19:23;2.83;;;1.25;;
6372;SDS011;3219;51.362;7.074;2023-08-07T03:21:53;2.75;;;1.23;;
6372;SDS011;3219;51.362;7.074;2023-08-07T03:26:49;6.30;;;1.38;;
6372;SDS011;3219;51.362;7.074;2023-08-07T03:29:16;3.90;;;1.10;;
6372;SDS011;3219;51.362;7.074;2023-08-07T03:31:43;2.38;;;1.33;;
6372;SDS011;3219;51.362;7.074;2023-08-07T03:34:10;2.53;;;1.92;;
6372;SDS011;3219;51.362;7.074;2023-08-07T03:36:37;5.15;;;2.42;;
6372;SDS011;3219;51.362;7.074;2023-08-07T03:39:07;5.22;;;2.50;;
6372;SDS011;3219;51.362;7.074;2023-08-07T03:41:37;5.53;;;1.63;;
6372;SDS011;3219;51.362;7.074;2023-08-07T03:44:05;5.15;;;1.88;;
6372;SDS011;3219;51.362;7.074;2023-08-07T03:46:32;3.53;;;1.33;;
6372;SDS011;3219;51.362;7.074;2023-08-07T03:48:59;4.70;;;2.33;;
6372;SDS011;3219;51.362;7.074;2023-08-07T03:51:26;6.38;;;2.35;;
6372;SDS011;3219;51.362;7.074;2023-08-07T03:53:55;4.78;;;2.15;;
6372;SDS011;3219;51.362;7.074;2023-08-07T03:56:25;7.55;;;3.72;;
6372;SDS011;3219;51.362;7.074;2023-08-07T04:01:20;8.93;;;4.07;;
6372;SDS011;3219;51.362;7.074;2023-08-07T04:03:48;8.73;;;3.38;;
6372;SDS011;3219;51.362;7.074;2023-08-07T04:06:15;7.32;;;3.47;;
6372;SDS011;3219;51.362;7.074;2023-08-07T04:08:42;11.50;;;4.30;;
6372;SDS011;3219;51.362;7.074;2023-08-07T04:11:10;9.20;;;4.35;;
6372;SDS011;3219;51.362;7.074;2023-08-07T04:13:39;9.45;;;4.75;;
6372;SDS011;3219;51.362;7.074;2023-08-07T04:16:08;7.38;;;4.10;;
6372;SDS011;3219;51.362;7.074;2023-08-07T04:18:35;8.98;;;4.30;;
6372;SDS011;3219;51.362;7.074;2023-08-07T04:21:02;9.10;;;4.30;;
6372;SDS011;3219;51.362;7.074;2023-08-07T04:23:30;11.88;;;3.45;;
6372;SDS011;3219;51.362;7.074;2023-08-07T04:25:59;6.93;;;3.35;;
6372;SDS011;3219;51.362;7.074;2023-08-07T04:28:27;8.10;;;3.50;;
6372;SDS011;3219;51.362;7.074;2023-08-07T04:30:57;5.80;;;2.85;;
6372;SDS011;3219;51.362;7.074;2023-08-07T04:33:24;7.70;;;2.55;;
6372;SDS011;3219;51.362;7.074;2023-08-07T04:35:51;6.60;;;2.45;;
6372;SDS011;3219;51.362;7.074;2023-08-07T04:38:19;4.88;;;2.88;;
6372;SDS011;3219;51.362;7.074;2023-08-07T04:40:47;6.85;;;3.13;;
6372;SDS011;3219;51.362;7.074;2023-08-07T04:43:16;6.45;;;2.13;;
6372;SDS011;3219;51.362;7.074;2023-08-07T04:45:44;10.65;;;3.58;;
6372;SDS011;3219;51.362;7.074;2023-08-07T04:48:13;5.10;;;3.05;;
6372;SDS011;3219;51.362;7.074;2023-08-07T04:50:42;3.83;;;3.05;;
6372;SDS011;3219;51.362;7.074;2023-08-07T04:53:11;7.05;;;2.95;;
6372;SDS011;3219;51.362;7.074;2023-08-07T04:55:39;9.20;;;2.97;;
6372;SDS011;3219;51.362;7.074;2023-08-07T04:58:07;9.52;;;3.78;;
6372;SDS011;3219;51.362;7.074;2023-08-07T05:00:34;6.18;;;3.30;;
6372;SDS011;3219;51.362;7.074;2023-08-07T05:03:01;12.07;;;4.03;;
6372;SDS011;3219;51.362;7.074;2023-08-07T05:05:31;5.70;;;3.80;;
6372;SDS011;3219;51.362;7.074;2023-08-07T05:07:59;9.02;;;4.47;;
6372;SDS011;3219;51.362;7.074;2023-08-07T05:10:27;8.98;;;4.05;;
6372;SDS011;3219;51.362;7.074;2023-08-07T05:12:55;11.00;;;4.07;;
6372;SDS011;3219;51.362;7.074;2023-08-07T05:15:22;10.68;;;4.18;;
6372;SDS011;3219;51.362;7.074;2023-08-07T05:17:50;8.48;;;4.47;;
6372;SDS011;3219;51.362;7.074;2023-08-07T05:20:18;8.38;;;4.07;;
6372;SDS011;3219;51.362;7.074;2023-08-07T05:22:47;7.68;;;3.97;;
6372;SDS011;3219;51.362;7.074;2023-08-07T05:25:15;5.57;;;2.75;;
6372;SDS011;3219;51.362;7.074;2023-08-07T05:27:43;8.80;;;3.00;;
6372;SDS011;3219;51.362;7.074;2023-08-07T05:30:12;5.50;;;2.88;;
6372;SDS011;3219;51.362;7.074;2023-08-07T05:32:40;6.65;;;3.17;;
6372;SDS011;3219;51.362;7.074;2023-08-07T05:35:08;6.28;;;2.88;;
6372;SDS011;3219;51.362;7.074;2023-08-07T05:37:35;6.65;;;3.22;;
6372;SDS011;3219;51.362;7.074;2023-08-07T05:40:06;8.27;;;3.33;;
6372;SDS011;3219;51.362;7.074;2023-08-07T05:42:37;5.50;;;2.40;;
6372;SDS011;3219;51.362;7.074;2023-08-07T05:45:06;5.47;;;2.55;;
6372;SDS011;3219;51.362;7.074;2023-08-07T05:47:35;8.48;;;2.67;;
6372;SDS011;3219;51.362;7.074;2023-08-07T05:50:02;5.93;;;2.65;;
6372;SDS011;3219;51.362;7.074;2023-08-07T05:52:29;6.50;;;2.88;;
6372;SDS011;3219;51.362;7.074;2023-08-07T05:54:57;6.68;;;2.97;;
6372;SDS011;3219;51.362;7.074;2023-08-07T05:57:27;9.73;;;2.67;;
6372;SDS011;3219;51.362;7.074;2023-08-07T06:02:23;5.00;;;2.33;;
6372;SDS011;3219;51.362;7.074;2023-08-07T06:04:51;6.40;;;2.15;;
6372;SDS011;3219;51.362;7.074;2023-08-07T06:07:20;4.47;;;1.88;;
6372;SDS011;3219;51.362;7.074;2023-08-07T06:09:48;6.03;;;3.28;;
6372;SDS011;3219;51.362;7.074;2023-08-07T06:12:16;6.30;;;2.88;;
6372;SDS011;3219;51.362;7.074;2023-08-07T06:14:45;5.93;;;2.40;;
6372;SDS011;3219;51.362;7.074;2023-08-07T06:17:13;5.25;;;3.38;;
6372;SDS011;3219;51.362;7.074;2023-08-07T06:19:40;7.05;;;4.00;;
6372;SDS011;3219;51.362;7.074;2023-08-07T06:22:08;7.45;;;4.13;;
6372;SDS011;3219;51.362;7.074;2023-08-07T06:24:36;7.60;;;3.83;;
6372;SDS011;3219;51.362;7.074;2023-08-07T06:27:04;7.47;;;4.20;;
6372;SDS011;3219;51.362;7.074;2023-08-07T06:29:32;8.07;;;4.57;;
6372;SDS011;3219;51.362;7.074;2023-08-07T06:32:02;7.18;;;4.22;;
6372;SDS011;3219;51.362;7.074;2023-08-07T06:34:29;5.85;;;4.25;;
6372;SDS011;3219;51.362;7.074;2023-08-07T06:36:56;7.45;;;3.90;;
6372;SDS011;3219;51.362;7.074;2023-08-07T06:39:23;6.65;;;4.53;;
6372;SDS011;3219;51.362;7.074;2023-08-07T06:41:51;6.88;;;3.53;;
6372;SDS011;3219;51.362;7.074;2023-08-07T06:44:19;4.28;;;2.88;;
6372;SDS011;3219;51.362;7.074;2023-08-07T06:46:47;4.80;;;2.95;;
6372;SDS011;3219;51.362;7.074;2023-08-07T06:49:17;4.20;;;2.10;;
6372;SDS011;3219;51.362;7.074;2023-08-07T06:51:44;4.75;;;2.67;;
6372;SDS011;3219;51.362;7.074;2023-08-07T06:54:11;6.25;;;3.55;;
6372;SDS011;3219;51.362;7.074;2023-08-07T06:56:38;4.47;;;2.90;;
6372;SDS011;3219;51.362;7.074;2023-08-07T06:59:07;6.15;;;3.10;;
6372;SDS011;3219;51.362;7.074;2023-08-07T07:01:35;6.07;;;2.38;;
6372;SDS011;3219;51.362;7.074;2023-08-07T07:04:03;4.07;;;2.47;;
6372;SDS011;3219;51.362;7.074;2023-08-07T07:06:32;6.43;;;2.38;;
6372;SDS011;3219;51.362;7.074;2023-08-07T07:08:59;4.35;;;2.20;;
6372;SDS011;3219;51.362;7.074;2023-08-07T07:11:27;5.35;;;2.78;;
6372;SDS011;3219;51.362;7.074;2023-08-07T07:13:55;4.00;;;2.25;;
6372;SDS011;3219;51.362;7.074;2023-08-07T07:16:24;4.07;;;2.40;;
6372;SDS011;3219;51.362;7.074;2023-08-07T07:18:51;4.50;;;2.70;;
6372;SDS011;3219;51.362;7.074;2023-08-07T07:21:20;4.43;;;2.28;;
6372;SDS011;3219;51.362;7.074;2023-08-07T07:23:50;3.72;;;1.90;;
6372;SDS011;3219;51.362;7.074;2023-08-07T07:26:18;2.60;;;1.75;;
6372;SDS011;3219;51.362;7.074;2023-08-07T07:28:46;3.58;;;1.90;;
6372;SDS011;3219;51.362;7.074;2023-08-07T07:31:16;4.80;;;2.35;;
6372;SDS011;3219;51.362;7.074;2023-08-07T07:33:43;6.40;;;2.40;;
6372;SDS011;3219;51.362;7.074;2023-08-07T07:36:13;3.95;;;2.25;;
6372;SDS011;3219;51.362;7.074;2023-08-07T07:38:41;4.53;;;1.92;;
6372;SDS011;3219;51.362;7.074;2023-08-07T07:41:10;3.00;;;1.60;;
6372;SDS011;3219;51.362;7.074;2023-08-07T07:46:06;3.17;;;2.05;;
6372;SDS011;3219;51.362;7.074;2023-08-07T07:48:33;3.15;;;2.08;;
6372;SDS011;3219;51.362;7.074;2023-08-07T07:51:01;3.58;;;1.70;;
6372;SDS011;3219;51.362;7.074;2023-08-07T07:53:28;5.25;;;2.60;;
6372;SDS011;3219;51.362;7.074;2023-08-07T07:55:56;3.17;;;2.28;;
6372;SDS011;3219;51.362;7.074;2023-08-07T07:58:26;2.50;;;1.88;;
6372;SDS011;3219;51.362;7.074;2023-08-07T08:00:54;4.82;;;2.67;;
6372;SDS011;3219;51.362;7.074;2023-08-07T08:03:21;2.35;;;1.67;;
6372;SDS011;3219;51.362;7.074;2023-08-07T08:05:49;3.10;;;1.63;;
6372;SDS011;3219;51.362;7.074;2023-08-07T08:08:17;1.52;;;1.08;;
6372;SDS011;3219;51.362;7.074;2023-08-07T08:10:45;2.50;;;1.85;;
6372;SDS011;3219;51.362;7.074;2023-08-07T08:13:13;3.67;;;2.00;;
6372;SDS011;3219;51.362;7.074;2023-08-07T08:15:43;2.22;;;1.85;;
6372;SDS011;3219;51.362;7.074;2023-08-07T08:18:11;4.25;;;1.52;;
6372;SDS011;3219;51.362;7.074;2023-08-07T08:20:38;4.38;;;1.48;;
6372;SDS011;3219;51.362;7.074;2023-08-07T08:23:06;5.05;;;1.98;;
6372;SDS011;3219;51.362;7.074;2023-08-07T08:25:34;5.55;;;2.03;;
6372;SDS011;3219;51.362;7.074;2023-08-07T08:28:03;3.20;;;1.83;;
6372;SDS011;3219;51.362;7.074;2023-08-07T08:30:31;3.45;;;2.13;;
6372;SDS011;3219;51.362;7.074;2023-08-07T08:32:59;4.28;;;1.90;;
6372;SDS011;3219;51.362;7.074;2023-08-07T08:35:26;3.97;;;2.08;;
6372;SDS011;3219;51.362;7.074;2023-08-07T08:37:55;4.30;;;2.03;;
6372;SDS011;3219;51.362;7.074;2023-08-07T08:40:23;5.03;;;1.92;;
6372;SDS011;3219;51.362;7.074;2023-08-07T08:42:51;5.28;;;1.80;;
6372;SDS011;3219;51.362;7.074;2023-08-07T08:45:23;8.13;;;2.20;;
6372;SDS011;3219;51.362;7.074;2023-08-07T08:47:51;3.53;;;2.53;;
6372;SDS011;3219;51.362;7.074;2023-08-07T08:50:19;5.72;;;2.17;;
6372;SDS011;3219;51.362;7.074;2023-08-07T08:52:48;7.60;;;2.00;;
6372;SDS011;3219;51.362;7.074;2023-08-07T08:55:19;4.97;;;2.90;;
6372;SDS011;3219;51.362;7.074;2023-08-07T08:57:47;6.63;;;2.28;;
6372;SDS011;3219;51.362;7.074;2023-08-07T09:00:15;10.63;;;2.67;;
6372;SDS011;3219;51.362;7.074;2023-08-07T09:02:45;8.02;;;2.90;;
6372;SDS011;3219;51.362;7.074;2023-08-07T09:05:14;5.15;;;2.70;;
6372;SDS011;3219;51.362;7.074;2023-08-07T09:07:44;4.03;;;2.40;;
6372;SDS011;3219;51.362;7.074;2023-08-07T09:10:12;6.63;;;2.67;;
6372;SDS011;3219;51.362;7.074;2023-08-07T09:12:40;8.15;;;3.00;;
6372;SDS011;3219;51.362;7.074;2023-08-07T09:15:08;7.10;;;3.00;;
6372;SDS011;3219;51.362;7.074;2023-08-07T09:17:38;8.43;;;2.78;;
6372;SDS011;3219;51.362;7.074;2023-08-07T09:20:07;8.73;;;2.55;;
6372;SDS011;3219;51.362;7.074;2023-08-07T09:22:38;6.90;;;2.63;;
6372;SDS011;3219;51.362;7.074;2023-08-07T09:25:07;5.85;;;2.40;;
6372;SDS011;3219;51.362;7.074;2023-08-07T09:27:36;6.57;;;2.47;;
6372;SDS011;3219;51.362;7.074;2023-08-07T09:30:05;6.38;;;2.08;;
6372;SDS011;3219;51.362;7.074;2023-08-07T09:32:35;4.47;;;2.08;;
6372;SDS011;3219;51.362;7.074;2023-08-07T09:35:03;5.60;;;2.88;;
6372;SDS011;3219;51.362;7.074;2023-08-07T09:37:31;8.38;;;3.92;;
6372;SDS011;3219;51.362;7.074;2023-08-07T09:40:00;7.13;;;2.75;;
6372;SDS011;3219;51.362;7.074;2023-08-07T09:42:31;6.50;;;2.40;;
6372;SDS011;3219;51.362;7.074;2023-08-07T09:44:59;6.85;;;2.17;;
6372;SDS011;3219;51.362;7.074;2023-08-07T09:49:55;5.22;;;2.17;;
6372;SDS011;3219;51.362;7.074;2023-08-07T09:52:22;5.55;;;2.50;;
6372;SDS011;3219;51.362;7.074;2023-08-07T09:54:55;7.32;;;2.10;;
6372;SDS011;3219;51.362;7.074;2023-08-07T09:57:24;3.50;;;1.48;;
6372;SDS011;3219;51.362;7.074;2023-08-07T09:59:53;6.47;;;2.97;;
6372;SDS011;3219;51.362;7.074;2023-08-07T10:02:21;7.63;;;1.88;;
6372;SDS011;3219;51.362;7.074;2023-08-07T10:04:49;6.53;;;2.20;;
6372;SDS011;3219;51.362;7.074;2023-08-07T10:07:18;6.78;;;2.97;;
6372;SDS011;3219;51.362;7.074;2023-08-07T10:09:46;8.50;;;3.00;;
6372;SDS011;3219;51.362;7.074;2023-08-07T10:12:14;8.35;;;2.75;;
6372;SDS011;3219;51.362;7.074;2023-08-07T10:14:43;7.82;;;3.28;;
6372;SDS011;3219;51.362;7.074;2023-08-07T10:17:14;5.70;;;2.22;;
6372;SDS011;3219;51.362;7.074;2023-08-07T10:19:41;5.63;;;3.13;;
6372;SDS011;3219;51.362;7.074;2023-08-07T10:22:09;6.28;;;2.40;;
6372;SDS011;3219;51.362;7.074;2023-08-07T10:24:38;7.60;;;2.90;;
6372;SDS011;3219;51.362;7.074;2023-08-07T10:27:08;6.85;;;2.22;;
6372;SDS011;3219;51.362;7.074;2023-08-07T10:29:35;6.82;;;3.03;;
6372;SDS011;3219;51.362;7.074;2023-08-07T10:32:04;6.57;;;2.35;;
6372;SDS011;3219;51.362;7.074;2023-08-07T10:34:34;5.50;;;2.92;;
6372;SDS011;3219;51.362;7.074;2023-08-07T10:37:02;4.78;;;2.28;;
6372;SDS011;3219;51.362;7.074;2023-08-07T10:39:29;6.07;;;2.42;;
6372;SDS011;3219;51.362;7.074;2023-08-07T10:41:57;6.65;;;2.65;;
6372;SDS011;3219;51.362;7.074;2023-08-07T10:44:26;8.18;;;2.20;;
6372;SDS011;3219;51.362;7.074;2023-08-07T10:46:58;5.90;;;2.78;;
6372;SDS011;3219;51.362;7.074;2023-08-07T10:49:31;6.43;;;2.35;;
6372;SDS011;3219;51.362;7.074;2023-08-07T10:52:03;5.40;;;2.35;;
6372;SDS011;3219;51.362;7.074;2023-08-07T10:54:36;6.30;;;2.80;;
6372;SDS011;3219;51.362;7.074;2023-08-07T10:57:09;6.93;;;2.20;;
6372;SDS011;3219;51.362;7.074;2023-08-07T10:59:38;5.30;;;2.17;;
6372;SDS011;3219;51.362;7.074;2023-08-07T11:02:07;7.00;;;2.70;;
6372;SDS011;3219;51.362;7.074;2023-08-07T11:04:35;5.78;;;2.17;;
6372;SDS011;3219;51.362;7.074;2023-08-07T11:07:05;7.03;;;2.38;;
6372;SDS011;3219;51.362;7.074;2023-08-07T11:09:34;6.65;;;2.28;;
6372;SDS011;3219;51.362;7.074;2023-08-07T11:12:01;5.80;;;2.28;;
6372;SDS011;3219;51.362;7.074;2023-08-07T11:14:29;5.35;;;1.75;;
6372;SDS011;3219;51.362;7.074;2023-08-07T11:16:59;5.53;;;2.45;;
6372;SDS011;3219;51.362;7.074;2023-08-07T11:19:27;6.65;;;2.20;;
6372;SDS011;3219;51.362;7.074;2023-08-07T11:21:55;4.72;;;1.48;;
6372;SDS011;3219;51.362;7.074;2023-08-07T11:24:26;6.43;;;1.88;;
6372;SDS011;3219;51.362;7.074;2023-08-07T11:26:55;6.53;;;2.50;;
6372;SDS011;3219;51.362;7.074;2023-08-07T11:29:24;9.63;;;2.88;;
6372;SDS011;3219;51.362;7.074;2023-08-07T11:31:51;8.55;;;2.85;;
6372;SDS011;3219;51.362;7.074;2023-08-07T11:34:19;7.10;;;2.10;;
6372;SDS011;3219;51.362;7.074;2023-08-07T11:36:48;4.43;;;2.40;;
6372;SDS011;3219;51.362;7.074;2023-08-07T11:39:16;9.40;;;2.88;;
6372;SDS011;3219;51.362;7.074;2023-08-07T11:41:46;5.45;;;2.67;;
6372;SDS011;3219;51.362;7.074;2023-08-07T11:44:15;6.80;;;3.60;;
6372;SDS011;3219;51.362;7.074;2023-08-07T11:46:43;7.18;;;3.05;;
6372;SDS011;3219;51.362;7.074;2023-08-07T11:49:12;5.85;;;2.05;;
6372;SDS011;3219;51.362;7.074;2023-08-07T11:51:39;10.23;;;2.45;;
6372;SDS011;3219;51.362;7.074;2023-08-07T11:54:13;5.63;;;3.40;;
6372;SDS011;3219;51.362;7.074;2023-08-07T11:56:41;6.72;;;2.45;;
6372;SDS011;3219;51.362;7.074;2023-08-07T11:59:11;10.10;;;2.78;;
6372;SDS011;3219;51.362;7.074;2023-08-07T12:01:39;8.25;;;2.15;;
6372;SDS011;3219;51.362;7.074;2023-08-07T12:04:08;9.15;;;2.10;;
6372;SDS011;3219;51.362;7.074;2023-08-07T12:06:35;8.32;;;2.45;;
6372;SDS011;3219;51.362;7.074;2023-08-07T12:09:05;5.28;;;2.65;;
6372;SDS011;3219;51.362;7.074;2023-08-07T12:11:37;7.95;;;2.60;;
6372;SDS011;3219;51.362;7.074;2023-08-07T12:14:05;9.75;;;3.55;;
6372;SDS011;3219;51.362;7.074;2023-08-07T12:16:34;7.20;;;2.60;;
6372;SDS011;3219;51.362;7.074;2023-08-07T12:19:02;6.35;;;3.53;;
6372;SDS011;3219;51.362;7.074;2023-08-07T12:21:31;7.82;;;2.42;;
6372;SDS011;3219;51.362;7.074;2023-08-07T12:23:59;7.30;;;2.47;;
6372;SDS011;3219;51.362;7.074;2023-08-07T12:26:27;6.18;;;2.85;;
6372;SDS011;3219;51.362;7.074;2023-08-07T12:28:55;7.65;;;2.25;;
6372;SDS011;3219;51.362;7.074;2023-08-07T12:31:23;4.50;;;2.35;;
6372;SDS011;3219;51.362;7.074;2023-08-07T12:33:52;9.35;;;1.92;;
6372;SDS011;3219;51.362;7.074;2023-08-07T12:36:20;8.77;;;2.15;;
6372;SDS011;3219;51.362;7.074;2023-08-07T12:38:48;6.50;;;2.72;;
6372;SDS011;3219;51.362;7.074;2023-08-07T12:41:16;7.30;;;2.55;;
6372;SDS011;3219;51.362;7.074;2023-08-07T12:43:44;8.68;;;2.85;;
6372;SDS011;3219;51.362;7.074;2023-08-07T12:46:12;5.18;;;2.47;;
6372;SDS011;3219;51.362;7.074;2023-08-07T12:48:40;6.07;;;1.92;;
6372;SDS011;3219;51.362;7.074;2023-08-07T12:51:10;6.43;;;2.05;;
6372;SDS011;3219;51.362;7.074;2023-08-07T12:53:38;7.95;;;1.95;;
6372;SDS011;3219;51.362;7.074;2023-08-07T12:56:06;4.43;;;1.50;;
6372;SDS011;3219;51.362;7.074;2023-08-07T12:58:34;5.63;;;1.52;;
6372;SDS011;3219;51.362;7.074;2023-08-07T13:01:02;6.63;;;2.17;;
6372;SDS011;3219;51.362;7.074;2023-08-07T13:03:29;7.97;;;1.90;;
6372;SDS011;3219;51.362;7.074;2023-08-07T13:05:57;8.40;;;1.92;;
6372;SDS011;3219;51.362;7.074;2023-08-07T13:08:27;2.92;;;2.03;;
6372;SDS011;3219;51.362;7.074;2023-08-07T13:10:55;4.70;;;1.58;;
6372;SDS011;3219;51.362;7.074;2023-08-07T13:13:24;3.60;;;1.45;;
6372;SDS011;3219;51.362;7.074;2023-08-07T13:15:53;5.72;;;2.03;;
6372;SDS011;3219;51.362;7.074;2023-08-07T13:18:21;4.55;;;1.48;;
6372;SDS011;3219;51.362;7.074;2023-08-07T13:20:49;5.28;;;1.85;;
6372;SDS011;3219;51.362;7.074;2023-08-07T13:23:17;3.33;;;1.75;;
6372;SDS011;3219;51.362;7.074;2023-08-07T13:25:46;3.83;;;1.77;;
6372;SDS011;3219;51.362;7.074;2023-08-07T13:28:14;4.00;;;1.75;;
6372;SDS011;3219;51.362;7.074;2023-08-07T13:30:43;3.78;;;1.50;;
6372;SDS011;3219;51.362;7.074;2023-08-07T13:33:11;3.15;;;1.25;;
6372;SDS011;3219;51.362;7.074;2023-08-07T13:35:39;3.55;;;1.48;;
6372;SDS011;3219;51.362;7.074;2023-08-07T13:38:07;3.22;;;1.60;;
6372;SDS011;3219;51.362;7.074;2023-08-07T13:40:37;5.22;;;2.25;;
6372;SDS011;3219;51.362;7.074;2023-08-07T13:43:07;2.70;;;1.13;;
6372;SDS011;3219;51.362;7.074;2023-08-07T13:45:36;2.97;;;1.15;;
6372;SDS011;3219;51.362;7.074;2023-08-07T13:48:04;4.30;;;1.75;;
6372;SDS011;3219;51.362;7.074;2023-08-07T13:50:34;3.55;;;1.27;;
6372;SDS011;3219;51.362;7.074;2023-08-07T13:53:03;3.33;;;1.23;;
6372;SDS011;3219;51.362;7.074;2023-08-07T13:55:32;3.45;;;2.13;;
6372;SDS011;3219;51.362;7.074;2023-08-07T13:58:00;4.45;;;1.40;;
6372;SDS011;3219;51.362;7.074;2023-08-07T14:00:30;5.10;;;1.25;;
6372;SDS011;3219;51.362;7.074;2023-08-07T14:02:59;2.47;;;1.15;;
6372;SDS011;3219;51.362;7.074;2023-08-07T14:05:28;5.50;;;0.90;;
6372;SDS011;3219;51.362;7.074;2023-08-07T14:07:57;5.32;;;1.70;;
6372;SDS011;3219;51.362;7.074;2023-08-07T14:10:25;1.67;;;1.40;;
6372;SDS011;3219;51.362;7.074;2023-08-07T14:12:53;9.63;;;2.20;;
6372;SDS011;3219;51.362;7.074;2023-08-07T14:15:21;5.30;;;2.08;;
6372;SDS011;3219;51.362;7.074;2023-08-07T14:17:51;3.15;;;1.50;;
6372;SDS011;3219;51.362;7.074;2023-08-07T14:20:20;2.70;;;0.95;;
6372;SDS011;3219;51.362;7.074;2023-08-07T14:22:48;4.47;;;1.48;;
6372;SDS011;3219;51.362;7.074;2023-08-07T14:25:16;5.22;;;1.05;;
6372;SDS011;3219;51.362;7.074;2023-08-07T14:27:46;3.90;;;1.10;;
6372;SDS011;3219;51.362;7.074;2023-08-07T14:30:15;2.10;;;1.40;;
6372;SDS011;3219;51.362;7.074;2023-08-07T14:32:43;3.08;;;1.45;;
6372;SDS011;3219;51.362;7.074;2023-08-07T14:35:14;4.70;;;1.38;;
6372;SDS011;3219;51.362;7.074;2023-08-07T14:37:42;5.90;;;1.38;;
6372;SDS011;3219;51.362;7.074;2023-08-07T14:40:12;3.50;;;1.63;;
6372;SDS011;3219;51.362;7.074;2023-08-07T14:42:40;3.08;;;0.98;;
6372;SDS011;3219;51.362;7.074;2023-08-07T14:45:09;3.90;;;1.20;;
6372;SDS011;3219;51.362;7.074;2023-08-07T14:47:37;3.03;;;1.48;;
6372;SDS011;3219;51.362;7.074;2023-08-07T14:50:05;3.70;;;1.30;;
6372;SDS011;3219;51.362;7.074;2023-08-07T14:52:35;3.80;;;1.30;;
6372;SDS011;3219;51.362;7.074;2023-08-07T14:55:03;2.53;;;1.00;;
6372;SDS011;3219;51.362;7.074;2023-08-07T14:57:31;3.83;;;1.40;;
6372;SDS011;3219;51.362;7.074;2023-08-07T14:59:59;4.25;;;1.27;;
6372;SDS011;3219;51.362;7.074;2023-08-07T15:02:27;3.65;;;0.95;;
6372;SDS011;3219;51.362;7.074;2023-08-07T15:04:56;2.35;;;1.65;;
6372;SDS011;3219;51.362;7.074;2023-08-07T15:07:24;4.15;;;1.45;;
6372;SDS011;3219;51.362;7.074;2023-08-07T15:09:54;1.83;;;1.20;;
6372;SDS011;3219;51.362;7.074;2023-08-07T15:12:22;3.10;;;1.33;;
6372;SDS011;3219;51.362;7.074;2023-08-07T15:14:50;3.13;;;1.23;;
6372;SDS011;3219;51.362;7.074;2023-08-07T15:17:21;2.72;;;1.92;;
6372;SDS011;3219;51.362;7.074;2023-08-07T15:19:49;2.58;;;1.15;;
6372;SDS011;3219;51.362;7.074;2023-08-07T15:22:18;2.30;;;1.15;;
6372;SDS011;3219;51.362;7.074;2023-08-07T15:24:46;2.72;;;0.93;;
6372;SDS011;3219;51.362;7.074;2023-08-07T15:27:15;3.47;;;1.15;;
6372;SDS011;3219;51.362;7.074;2023-08-07T15:29:44;3.75;;;1.60;;
6372;SDS011;3219;51.362;7.074;2023-08-07T15:32:12;1.95;;;1.00;;
6372;SDS011;3219;51.362;7.074;2023-08-07T15:34:43;2.80;;;1.20;;
6372;SDS011;3219;51.362;7.074;2023-08-07T15:37:13;3.78;;;0.98;;
6372;SDS011;3219;51.362;7.074;2023-08-07T15:39:41;3.40;;;1.30;;
6372;SDS011;3219;51.362;7.074;2023-08-07T15:42:09;3.45;;;1.25;;